Time;durP1;ratioP1;P1;durP2;ratioP2;P2;SDS_P1;SDS_P2;PMS_P1;PMS_P2;Temp;Humidity;BMP_temperature;BMP_pressure;BME280_temperature;BME280_humidity;BME280_pressure;Samples;Min_cycle;Max_cycle;Signal;HPM_P1;HPM_P2
2022/05/20 00:01:37;;;;;;;3.10;1.25;;;;;;;6.01;62.97;101558.38;5082267;28;20406;-71
2022/05/20 00:04:03;;;;;;;3.53;1.20;;;;;;;5.92;62.91;101553.47;5086193;28;20401;-71
2022/05/20 00:06:28;;;;;;;3.03;1.30;;;;;;;5.95;63.23;101559.28;5080917;28;20130;-71
2022/05/20 00:08:55;;;;;;;3.47;1.65;;;;;;;6.02;63.24;101553.75;5092493;28;20557;-71
2022/05/20 00:11:20;;;;;;;4.15;1.40;;;;;;;6.09;63.71;101553.69;5092127;28;20043;-71
2022/05/20 00:13:46;;;;;;;2.40;1.08;;;;;;;6.29;63.54;101548.81;5092379;28;20039;-71
2022/05/20 00:16:12;;;;;;;4.60;1.52;;;;;;;6.54;63.02;101562.28;5089859;28;20050;-71
2022/05/20 00:18:38;;;;;;;5.82;1.88;;;;;;;6.73;62.92;101549.41;5087024;28;20508;-70
2022/05/20 00:21:04;;;;;;;3.95;1.60;;;;;;;6.85;62.52;101548.38;5071780;28;20036;-70
2022/05/20 00:23:29;;;;;;;2.83;1.70;;;;;;;6.93;62.04;101545.28;5076732;28;20202;-70
2022/05/20 00:25:55;;;;;;;4.63;1.73;;;;;;;6.81;62.46;101547.19;5075716;28;20225;-71
2022/05/20 00:28:23;;;;;;;4.32;1.55;;;;;;;6.83;62.46;101544.22;5076551;28;20032;-70
2022/05/20 00:30:58;;;;;;;4.18;1.70;;;;;;;7.02;62.06;101544.97;5081827;28;20406;-70
2022/05/20 00:33:25;;;;;;;5.70;2.05;;;;;;;7.15;60.94;101551.03;5090088;28;20093;-70
2022/05/20 00:35:51;;;;;;;6.30;1.80;;;;;;;7.26;60.90;101547.47;5086298;28;20086;-70
2022/05/20 00:38:17;;;;;;;3.85;2.13;;;;;;;7.26;60.42;101541.16;5092066;28;20040;-71
2022/05/20 00:40:44;;;;;;;8.32;2.30;;;;;;;7.06;61.38;101546.16;5079953;28;20127;-71
2022/05/20 00:43:29;;;;;;;4.80;2.10;;;;;;;6.88;61.29;101538.88;5075979;28;20422;-71
2022/05/20 00:45:58;;;;;;;3.50;1.80;;;;;;;6.76;61.40;101532.56;5076402;28;20043;-71
2022/05/20 00:48:24;;;;;;;4.57;1.83;;;;;;;6.62;61.02;101534.69;5088943;28;20399;-71
2022/05/20 00:51:12;;;;;;;4.18;1.75;;;;;;;6.46;61.88;101538.06;5087192;28;20417;-70
2022/05/20 00:53:48;;;;;;;3.65;1.85;;;;;;;6.41;61.19;101540.66;5087333;28;20040;-70
2022/05/20 00:56:17;;;;;;;6.95;1.98;;;;;;;6.35;62.30;101540.53;5073402;28;20052;-70
2022/05/20 00:58:42;;;;;;;3.33;1.33;;;;;;;6.59;62.43;101535.13;5086575;28;20465;-70
2022/05/20 01:01:08;;;;;;;2.17;1.60;;;;;;;6.56;62.04;101535.59;5076875;28;20032;-70
2022/05/20 01:03:36;;;;;;;6.43;2.20;;;;;;;6.49;61.98;101532.16;5091546;28;20036;-70
2022/05/20 01:06:02;;;;;;;4.30;2.10;;;;;;;6.43;62.17;101538.53;5091055;28;20046;-70
2022/05/20 01:08:30;;;;;;;3.92;1.70;;;;;;;6.37;61.88;101534.84;5090883;28;20040;-70
2022/05/20 01:10:57;;;;;;;4.53;1.83;;;;;;;6.37;62.30;101537.56;5087820;28;20096;-70
2022/05/20 01:13:26;;;;;;;2.45;1.60;;;;;;;6.42;62.54;101540.44;5087294;28;20119;-70
2022/05/20 01:15:53;;;;;;;3.50;1.80;;;;;;;6.34;61.87;101536.13;5082889;28;20063;-70
2022/05/20 01:18:19;;;;;;;3.10;1.95;;;;;;;6.20;62.16;101542.81;5091573;28;20036;-70
2022/05/20 01:20:51;;;;;;;4.18;1.40;;;;;;;6.06;62.46;101544.03;5073624;28;20147;-70
2022/05/20 01:23:19;;;;;;;1.80;1.35;;;;;;;5.97;62.45;101535.38;5072308;28;20058;-70
2022/05/20 01:25:48;;;;;;;2.78;1.88;;;;;;;5.91;62.74;101539.03;5078380;28;20101;-70
2022/05/20 01:28:14;;;;;;;3.88;1.75;;;;;;;5.98;62.86;101541.66;5078589;28;20039;-70
2022/05/20 01:30:45;;;;;;;2.42;1.58;;;;;;;5.88;62.80;101538.59;5085424;28;20040;-70
2022/05/20 01:33:11;;;;;;;2.95;1.60;;;;;;;5.80;63.12;101528.00;5089768;28;20036;-70
2022/05/20 01:35:43;;;;;;;2.70;1.70;;;;;;;5.83;62.97;101539.28;5062686;28;20123;-70
2022/05/20 01:38:10;;;;;;;3.53;1.55;;;;;;;5.88;63.61;101541.31;5080436;28;20101;-71
2022/05/20 01:40:55;;;;;;;1.92;1.33;;;;;;;5.80;63.25;101536.19;5074461;28;20036;-71
2022/05/20 01:43:37;;;;;;;1.98;1.13;;;;;;;5.76;63.30;101530.38;5081319;28;20127;-70
2022/05/20 01:46:20;;;;;;;3.97;1.70;;;;;;;5.69;63.61;101538.59;5082631;28;20126;-70
2022/05/20 01:48:53;;;;;;;2.97;1.30;;;;;;;5.62;64.03;101532.41;5069798;28;20040;-70
2022/05/20 01:51:19;;;;;;;2.10;0.90;;;;;;;5.57;63.82;101532.25;5086595;28;20039;-70
2022/05/20 01:53:50;;;;;;;4.38;1.10;;;;;;;5.55;64.33;101547.97;5071039;28;20080;-70
2022/05/20 01:56:20;;;;;;;1.98;1.40;;;;;;;5.58;64.18;101536.66;5085132;28;20044;-70
2022/05/20 01:59:09;;;;;;;1.33;1.20;;;;;;;5.68;63.36;101545.09;5072230;28;20036;-71
2022/05/20 02:01:52;;;;;;;2.03;1.10;;;;;;;5.67;63.98;101535.28;5068885;28;20047;-69
2022/05/20 02:04:27;;;;;;;1.67;0.93;;;;;;;5.75;64.04;101536.88;5069999;28;20040;-70
2022/05/20 02:07:03;;;;;;;1.63;0.90;;;;;;;5.98;63.32;101534.31;5073966;28;20040;-70
2022/05/20 02:09:44;;;;;;;2.85;1.20;;;;;;;6.04;63.43;101535.28;5070750;28;20148;-70
2022/05/20 02:12:12;;;;;;;2.95;1.58;;;;;;;6.12;63.05;101536.88;5068696;28;20048;-70
2022/05/20 02:14:42;;;;;;;1.60;1.20;;;;;;;6.17;63.35;101537.00;5086392;28;20039;-70
2022/05/20 02:17:13;;;;;;;1.42;0.98;;;;;;;6.16;62.75;101543.53;5080450;28;20131;-70
2022/05/20 02:19:47;;;;;;;1.58;1.05;;;;;;;6.38;62.44;101560.19;5089020;28;20063;-71
2022/05/20 02:22:18;;;;;;;1.92;1.20;;;;;;;6.43;62.19;101555.75;5074536;28;20139;-70
2022/05/20 02:24:46;;;;;;;2.28;0.82;;;;;;;6.47;61.68;101561.56;5087735;28;20116;-70
2022/05/20 02:27:17;;;;;;;1.20;0.80;;;;;;;6.56;61.78;101560.16;5073875;28;20442;-70
2022/05/20 02:29:58;;;;;;;2.25;1.05;;;;;;;6.51;61.17;101568.19;5083138;28;20041;-70
2022/05/20 02:32:28;;;;;;;2.28;1.38;;;;;;;6.48;60.90;101571.38;5058480;28;20131;-70
2022/05/20 02:34:54;;;;;;;2.08;1.10;;;;;;;6.46;61.04;101570.78;5082641;28;20040;-70
2022/05/20 02:37:24;;;;;;;2.05;1.05;;;;;;;6.56;60.92;101576.50;5077189;28;20461;-71
2022/05/20 02:39:51;;;;;;;3.05;1.02;;;;;;;6.66;60.84;101571.34;5074791;28;20064;-71
2022/05/20 02:42:16;;;;;;;1.98;1.00;;;;;;;6.81;60.59;101574.47;5090299;28;20035;-68
2022/05/20 02:44:42;;;;;;;1.98;0.90;;;;;;;7.01;59.60;101593.25;5079577;28;20039;-71
2022/05/20 02:47:08;;;;;;;2.10;1.08;;;;;;;7.18;59.92;101587.94;5073651;28;20044;-69
2022/05/20 02:49:33;;;;;;;0.98;0.80;;;;;;;7.55;59.07;101586.66;5088784;28;20059;-69
2022/05/20 02:51:59;;;;;;;1.25;0.90;;;;;;;7.91;57.66;101589.34;5084062;28;20056;-70
2022/05/20 02:54:24;;;;;;;1.63;1.20;;;;;;;8.10;57.26;101594.41;5087923;28;20063;-69
2022/05/20 02:56:50;;;;;;;1.95;1.20;;;;;;;8.25;56.32;101596.63;5081911;28;20387;-69
2022/05/20 03:04:45;;;;;;;3.15;1.23;;;;;;;8.59;55.16;101605.81;5086930;28;20048;-70
2022/05/20 03:07:13;;;;;;;1.33;0.95;;;;;;;8.76;54.03;101589.44;5090123;28;20118;-70
2022/05/20 03:09:38;;;;;;;2.17;1.15;;;;;;;8.95;53.75;101601.84;5088828;28;20405;-70
2022/05/20 03:12:05;;;;;;;1.83;1.30;;;;;;;8.99;53.09;101604.91;5075974;28;20039;-70
2022/05/20 03:14:31;;;;;;;2.25;0.88;;;;;;;8.86;51.56;101603.34;5094474;28;20042;-70
2022/05/20 03:17:00;;;;;;;3.20;1.08;;;;;;;8.81;51.47;101600.47;5080209;28;20048;-70
2022/05/20 03:19:30;;;;;;;2.00;1.17;;;;;;;8.86;50.80;101608.81;5074273;28;20140;-71
2022/05/20 03:21:58;;;;;;;2.78;1.00;;;;;;;8.89;49.50;101608.31;5071754;28;20047;-71
2022/05/20 03:24:23;;;;;;;2.22;1.10;;;;;;;8.85;50.17;101600.81;5077648;28;20035;-70
2022/05/20 03:26:49;;;;;;;3.33;1.00;;;;;;;8.95;49.72;101611.97;5082160;28;20055;-71
2022/05/20 03:29:15;;;;;;;2.28;0.85;;;;;;;8.97;49.01;101599.69;5079826;28;20033;-71
2022/05/20 03:31:41;;;;;;;1.90;0.90;;;;;;;9.06;48.61;101605.59;5078452;28;20044;-70
2022/05/20 03:34:08;;;;;;;1.58;0.80;;;;;;;9.21;47.77;101607.78;5092525;28;20028;-70
2022/05/20 03:36:36;;;;;;;1.08;0.98;;;;;;;9.29;47.75;101599.13;5075060;28;20040;-70
2022/05/20 03:39:01;;;;;;;0.73;0.63;;;;;;;9.51;47.05;101610.16;5076341;28;20037;-71
2022/05/20 03:41:27;;;;;;;1.60;0.85;;;;;;;9.78;46.54;101602.91;5086897;28;20122;-71
2022/05/20 03:43:53;;;;;;;0.60;0.60;;;;;;;9.82;45.62;101601.31;5084058;28;20539;-71
2022/05/20 03:46:18;;;;;;;1.50;0.85;;;;;;;9.84;46.90;101599.13;5090780;28;20032;-69
2022/05/20 03:48:44;;;;;;;1.02;0.90;;;;;;;10.21;46.07;101604.03;5090510;28;20115;-70
2022/05/20 03:51:11;;;;;;;0.70;0.47;;;;;;;10.54;44.62;101603.91;5091302;28;20064;-70
2022/05/20 03:53:37;;;;;;;1.52;0.88;;;;;;;10.70;45.00;101612.31;5090548;28;20040;-69
2022/05/20 03:56:04;;;;;;;1.17;1.08;;;;;;;10.89;44.41;101605.34;5091003;28;20084;-70
2022/05/20 03:58:29;;;;;;;2.75;0.90;;;;;;;11.16;43.24;101595.19;5091707;28;20040;-70
2022/05/20 04:03:43;;;;;;;2.55;1.00;;;;;;;11.00;43.55;101593.41;5091975;28;20063;-70
2022/05/20 04:06:09;;;;;;;0.60;0.60;;;;;;;10.95;43.33;101598.84;5088537;28;20494;-70
2022/05/20 04:08:35;;;;;;;2.53;0.90;;;;;;;10.95;43.03;101593.34;5073168;28;20093;-70
2022/05/20 04:11:00;;;;;;;1.88;0.85;;;;;;;10.99;43.20;101599.97;5073711;28;20467;-69
2022/05/20 04:13:26;;;;;;;3.45;0.80;;;;;;;11.04;43.48;101608.25;5073690;28;20032;-70
2022/05/20 04:15:54;;;;;;;0.93;0.82;;;;;;;11.11;42.86;101599.81;5072976;28;20044;-70
2022/05/20 04:18:20;;;;;;;1.70;1.40;;;;;;;11.02;42.38;101606.88;5073104;28;20506;-70
2022/05/20 04:20:46;;;;;;;1.58;0.95;;;;;;;10.83;42.97;101606.41;5071729;28;20124;-70
2022/05/20 04:23:14;;;;;;;1.20;0.90;;;;;;;10.79;42.07;101602.53;5073223;28;20047;-70
2022/05/20 04:25:39;;;;;;;1.10;0.93;;;;;;;10.72;43.33;101610.13;5089583;28;20118;-70
2022/05/20 04:28:05;;;;;;;1.88;1.02;;;;;;;10.79;42.32;101599.78;5077604;28;20069;-70
2022/05/20 04:30:30;;;;;;;2.15;1.30;;;;;;;10.88;43.13;101604.53;5073887;28;20060;-70
2022/05/20 04:32:56;;;;;;;3.00;1.30;;;;;;;11.04;42.65;101605.50;5085136;28;20032;-71
2022/05/20 04:35:21;;;;;;;1.05;0.88;;;;;;;11.15;42.32;101599.03;5072711;28;20131;-70
2022/05/20 04:37:47;;;;;;;1.02;0.93;;;;;;;11.31;42.51;101601.91;5086475;28;20043;-71
2022/05/20 04:40:13;;;;;;;1.48;0.98;;;;;;;11.25;41.44;101617.50;5092841;28;20050;-70
2022/05/20 04:48:14;;;;;;;1.65;0.90;;;;;;;11.43;40.25;101611.59;5064066;28;20044;-70
2022/05/20 04:50:40;;;;;;;1.73;0.90;;;;;;;11.61;40.37;101612.28;5091819;28;20093;-71
2022/05/20 04:53:06;;;;;;;1.48;0.85;;;;;;;11.74;39.92;101611.81;5092460;28;20082;-71
2022/05/20 04:55:32;;;;;;;1.02;0.73;;;;;;;11.94;39.47;101605.66;5091270;28;20100;-71
2022/05/20 04:57:59;;;;;;;0.80;0.80;;;;;;;11.92;38.61;101608.66;5071626;28;20040;-71
2022/05/20 05:00:28;;;;;;;0.68;0.60;;;;;;;11.93;39.39;101604.00;5072096;28;20032;-71
2022/05/20 05:02:53;;;;;;;1.02;0.60;;;;;;;11.92;38.85;101599.59;5071902;28;20048;-70
2022/05/20 05:05:27;;;;;;;0.95;0.80;;;;;;;11.90;38.65;101616.34;5073325;28;20040;-71
2022/05/20 05:07:54;;;;;;;0.95;0.80;;;;;;;11.77;39.00;101605.78;5076461;28;20193;-70
2022/05/20 05:10:23;;;;;;;0.80;0.80;;;;;;;11.74;39.30;101606.31;5085305;28;20040;-71
2022/05/20 05:12:49;;;;;;;1.60;0.93;;;;;;;11.67;39.12;101598.31;5091993;28;20043;-69
2022/05/20 05:15:15;;;;;;;0.80;0.77;;;;;;;11.64;39.05;101604.34;5090075;28;20032;-69
2022/05/20 05:20:26;;;;;;;0.85;0.70;;;;;;;12.14;39.03;101605.75;5105047;28;20044;-70
2022/05/20 05:22:53;;;;;;;1.95;0.80;;;;;;;12.45;38.31;101620.47;5091648;28;20554;-71
2022/05/20 05:25:21;;;;;;;1.33;0.80;;;;;;;12.60;37.77;101614.19;5078977;28;20132;-71
2022/05/20 05:27:48;;;;;;;1.77;0.90;;;;;;;12.59;37.24;101618.03;5071499;28;20040;-71
2022/05/20 05:30:14;;;;;;;1.73;0.90;;;;;;;12.61;38.06;101616.66;5071721;28;20565;-71
2022/05/20 05:32:41;;;;;;;0.90;0.90;;;;;;;12.64;36.74;101620.81;5088030;28;20130;-71
2022/05/20 05:35:09;;;;;;;0.75;0.75;;;;;;;12.68;37.04;101605.41;5091440;28;20047;-71
2022/05/20 05:37:36;;;;;;;1.67;0.60;;;;;;;12.79;36.62;101612.59;5091342;28;20525;-71
2022/05/20 05:40:01;;;;;;;1.65;1.33;;;;;;;12.90;37.03;101614.28;5060909;28;20298;-71
2022/05/20 05:42:28;;;;;;;0.93;0.80;;;;;;;12.96;36.52;101595.81;5071373;28;20043;-71
2022/05/20 05:44:54;;;;;;;1.85;0.73;;;;;;;13.04;36.89;101598.03;5070161;28;20072;-70
2022/05/20 05:47:20;;;;;;;1.85;1.10;;;;;;;12.91;36.42;101602.16;5070669;28;20127;-70
2022/05/20 05:49:46;;;;;;;1.30;1.00;;;;;;;13.03;36.32;101601.06;5090751;28;20146;-70
2022/05/20 05:52:11;;;;;;;2.45;1.10;;;;;;;13.10;36.51;101593.34;5090444;28;20048;-71
2022/05/20 05:54:37;;;;;;;1.27;0.85;;;;;;;13.19;36.04;101595.34;5052295;28;20094;-76
2022/05/20 05:57:03;;;;;;;1.30;1.10;;;;;;;13.28;35.97;101601.09;5051155;28;20135;-75
2022/05/20 05:59:31;;;;;;;1.52;0.93;;;;;;;13.14;36.03;101594.44;5057276;28;20573;-75
2022/05/20 06:01:59;;;;;;;1.13;0.93;;;;;;;13.23;36.17;101595.59;5061759;28;20032;-75
2022/05/20 06:04:26;;;;;;;2.30;0.95;;;;;;;13.27;35.64;101599.44;5035924;28;20481;-75
2022/05/20 06:06:52;;;;;;;1.33;0.88;;;;;;;13.34;35.30;101597.22;5050584;28;20072;-75
2022/05/20 06:09:18;;;;;;;1.27;0.82;;;;;;;13.51;35.53;101607.97;5051377;28;20074;-75
2022/05/20 06:11:44;;;;;;;2.45;0.77;;;;;;;13.63;35.66;101610.44;5057953;28;20166;-75
2022/05/20 06:14:10;;;;;;;1.00;0.90;;;;;;;13.68;35.55;101596.66;5064047;28;20033;-76
2022/05/20 06:16:38;;;;;;;2.15;0.80;;;;;;;13.71;34.85;101602.47;5053448;28;20045;-75
2022/05/20 06:19:09;;;;;;;0.90;0.73;;;;;;;13.84;34.96;101601.03;5063710;28;20522;-74
2022/05/20 06:21:34;;;;;;;0.68;0.68;;;;;;;13.99;35.19;101595.47;5053384;28;20037;-74
2022/05/20 06:24:01;;;;;;;2.60;0.70;;;;;;;14.40;34.48;101595.31;5052922;28;20039;-74
2022/05/20 06:26:32;;;;;;;1.30;0.95;;;;;;;14.60;34.33;101598.03;5061514;28;20045;-83
2022/05/20 06:28:58;;;;;;;2.75;1.20;;;;;;;14.68;34.00;101602.94;5057906;28;20087;-77
2022/05/20 06:31:24;;;;;;;0.70;0.70;;;;;;;14.70;34.12;101599.88;5057093;28;20119;-77
2022/05/20 06:33:50;;;;;;;0.80;0.80;;;;;;;14.54;33.70;101599.13;5064678;28;20605;-77
2022/05/20 06:41:44;;;;;;;1.08;0.90;;;;;;;14.86;33.37;101582.09;5059760;28;20495;-76
2022/05/20 06:44:12;;;;;;;1.95;1.02;;;;;;;14.91;33.42;101597.81;5047357;28;20037;-78
2022/05/20 06:46:38;;;;;;;0.70;0.70;;;;;;;14.96;33.33;101587.56;5060657;28;20036;-78
2022/05/20 06:49:04;;;;;;;1.30;0.82;;;;;;;14.87;33.53;101588.44;5059374;28;20041;-80
2022/05/20 06:51:32;;;;;;;0.70;0.70;;;;;;;14.80;33.61;101586.00;5059265;28;20041;-80
2022/05/20 06:53:59;;;;;;;0.95;0.90;;;;;;;14.94;33.34;101580.69;5067353;28;20113;-80
2022/05/20 06:56:28;;;;;;;1.17;0.83;;;;;;;15.06;32.85;101578.34;5082256;28;20035;-83
2022/05/20 06:58:55;;;;;;;1.40;0.95;;;;;;;15.03;32.79;101573.41;5082223;28;20506;-82
2022/05/20 07:01:22;;;;;;;2.22;1.10;;;;;;;14.70;32.21;101578.59;5093473;28;20055;-82
2022/05/20 07:03:48;;;;;;;1.50;0.75;;;;;;;14.61;32.21;101582.28;5096477;28;20482;-83
2022/05/20 07:06:15;;;;;;;1.00;0.90;;;;;;;14.69;32.96;101565.06;5085421;28;20071;-82
2022/05/20 07:08:40;;;;;;;0.98;0.88;;;;;;;14.71;32.09;101574.72;5110030;28;20044;-82
2022/05/20 07:11:06;;;;;;;1.30;1.10;;;;;;;14.72;32.43;101570.84;5104921;28;20047;-83
2022/05/20 07:13:32;;;;;;;1.92;1.10;;;;;;;14.89;32.78;101555.81;5070741;28;20041;-83
2022/05/20 07:15:58;;;;;;;1.10;0.73;;;;;;;15.04;32.27;101558.47;5087789;28;20081;-82
2022/05/20 07:18:25;;;;;;;1.30;1.08;;;;;;;15.22;32.06;101549.47;5091915;28;20036;-82
2022/05/20 07:20:51;;;;;;;0.80;0.80;;;;;;;15.33;32.18;101547.44;5076417;28;20032;-82
2022/05/20 07:23:17;;;;;;;1.48;0.90;;;;;;;15.38;31.77;101545.44;5084352;28;20037;-79
2022/05/20 07:25:42;;;;;;;2.80;1.30;;;;;;;15.55;31.84;101546.94;5089131;28;20040;-79
2022/05/20 07:28:08;;;;;;;1.38;1.13;;;;;;;15.41;31.92;101541.28;5092820;28;20093;-80
2022/05/20 07:30:34;;;;;;;0.90;0.90;;;;;;;15.39;31.99;101558.16;5089443;28;20720;-82
2022/05/20 07:33:00;;;;;;;0.98;0.90;;;;;;;15.46;30.76;101557.00;5078514;28;20509;-83
2022/05/20 07:35:26;;;;;;;2.47;1.00;;;;;;;15.40;31.21;101545.16;5078330;28;20064;-82
2022/05/20 07:37:51;;;;;;;0.90;0.90;;;;;;;15.25;31.23;101545.28;5073248;28;20078;-82
2022/05/20 07:40:18;;;;;;;0.90;0.90;;;;;;;15.29;31.24;101533.38;5073733;28;20041;-82
2022/05/20 07:42:44;;;;;;;1.02;0.80;;;;;;;15.03;31.54;101537.47;5072550;28;20044;-82
2022/05/20 07:45:10;;;;;;;0.80;0.80;;;;;;;14.91;31.84;101540.59;5073529;28;20048;-82
2022/05/20 07:47:35;;;;;;;1.13;0.75;;;;;;;15.19;31.88;101533.47;5073871;28;20041;-83
2022/05/20 07:50:03;;;;;;;1.42;0.88;;;;;;;15.51;31.30;101532.06;5083302;28;20063;-82
2022/05/20 07:55:14;;;;;;;1.08;0.95;;;;;;;15.26;31.57;101531.16;5091798;28;20036;-82
2022/05/20 07:57:40;;;;;;;0.98;0.50;;;;;;;15.08;31.52;101526.38;5093712;28;20079;-82
2022/05/20 08:00:09;;;;;;;3.10;1.15;;;;;;;15.08;30.90;101534.66;5092239;28;20071;-83
2022/05/20 08:02:40;;;;;;;0.80;0.80;;;;;;;15.03;31.13;101516.19;5093516;28;20032;-83
2022/05/20 08:05:07;;;;;;;0.70;0.63;;;;;;;15.06;31.59;101518.38;5092313;28;20134;-83
2022/05/20 08:07:38;;;;;;;1.42;1.13;;;;;;;14.98;31.44;101520.94;5087403;28;20032;-83
2022/05/20 08:10:08;;;;;;;0.80;0.80;;;;;;;15.02;31.65;101519.25;5071862;28;20048;-83
2022/05/20 08:12:34;;;;;;;1.27;0.98;;;;;;;15.28;31.07;101519.84;5055701;28;20041;-83
2022/05/20 08:14:59;;;;;;;1.25;1.00;;;;;;;15.30;30.88;101517.63;5073316;28;20066;-83
2022/05/20 08:17:25;;;;;;;0.70;0.70;;;;;;;15.37;30.75;101513.38;5073059;28;20136;-82
2022/05/20 08:19:52;;;;;;;1.10;1.00;;;;;;;15.20;30.54;101512.16;5072888;28;20036;-82
2022/05/20 08:22:22;;;;;;;0.77;0.77;;;;;;;15.17;31.41;101501.69;5072128;28;20044;-82
2022/05/20 08:24:57;;;;;;;1.85;1.00;;;;;;;15.23;30.83;101506.88;5072149;28;20119;-82
2022/05/20 08:27:25;;;;;;;1.23;0.90;;;;;;;15.21;30.70;101497.22;5082002;28;20056;-82
2022/05/20 08:29:51;;;;;;;1.23;0.80;;;;;;;15.18;31.03;101489.53;5092164;28;20068;-82
2022/05/20 08:32:17;;;;;;;2.30;1.00;;;;;;;15.14;30.70;101503.09;5089225;28;20083;-82
2022/05/20 08:34:43;;;;;;;1.45;0.50;;;;;;;14.99;30.95;101503.25;5072044;28;20503;-82
2022/05/20 08:37:10;;;;;;;1.52;0.68;;;;;;;14.96;31.01;101488.06;5092672;28;20044;-82
2022/05/20 08:39:35;;;;;;;0.77;0.70;;;;;;;14.82;31.19;101500.06;5092877;28;20040;-82
2022/05/20 08:42:02;;;;;;;1.10;0.65;;;;;;;14.74;31.56;101485.75;5091518;28;20036;-83
2022/05/20 08:44:27;;;;;;;0.98;0.60;;;;;;;14.47;31.09;101489.00;5091573;28;20048;-82
2022/05/20 08:47:24;;;;;;;5.18;0.77;;;;;;;14.37;31.43;101494.53;5091498;28;20496;-82
2022/05/20 08:49:52;;;;;;;0.82;0.80;;;;;;;14.27;32.16;101475.28;5090758;28;20065;-83
2022/05/20 08:52:18;;;;;;;0.90;0.70;;;;;;;14.45;31.77;101476.59;5072861;28;20072;-82
2022/05/20 08:54:43;;;;;;;0.60;0.60;;;;;;;14.48;32.29;101487.06;5071388;28;20072;-83
2022/05/20 08:57:33;;;;;;;0.68;0.65;;;;;;;14.49;31.97;101474.91;5070867;28;20044;-83
2022/05/20 09:00:00;;;;;;;0.77;0.77;;;;;;;14.53;31.66;101473.19;5072324;28;20123;-82
2022/05/20 09:02:26;;;;;;;1.60;0.88;;;;;;;14.57;32.27;101481.72;5072152;28;20503;-82
2022/05/20 09:04:52;;;;;;;1.00;0.90;;;;;;;14.55;32.16;101476.50;5071956;28;20036;-82
2022/05/20 09:07:19;;;;;;;1.08;0.60;;;;;;;14.47;32.20;101475.19;5072095;28;20044;-82
2022/05/20 09:09:45;;;;;;;1.33;0.80;;;;;;;14.58;32.43;101478.72;5071014;28;20128;-83
2022/05/20 09:12:25;;;;;;;1.60;1.00;;;;;;;14.51;31.97;101493.94;5085889;28;20474;-82
2022/05/20 09:18:01;;;;;;;0.63;0.63;;;;;;;14.33;31.88;101479.66;5076938;28;20040;-83
2022/05/20 09:20:27;;;;;;;5.00;0.60;;;;;;;14.35;32.67;101488.47;5092154;28;20059;-83
2022/05/20 09:23:22;;;;;;;0.80;0.80;;;;;;;14.22;32.54;101468.94;5092271;28;20414;-82
2022/05/20 09:25:55;;;;;;;0.60;0.60;;;;;;;13.90;32.70;101467.50;5091368;28;20051;-83
2022/05/20 09:28:28;;;;;;;1.13;1.00;;;;;;;13.53;32.34;101463.19;5091895;28;20044;-83
2022/05/20 09:31:22;;;;;;;0.70;0.70;;;;;;;13.20;33.15;101483.97;5090528;28;20089;-83
2022/05/20 09:33:51;;;;;;;1.10;0.70;;;;;;;12.79;33.82;101463.84;5065336;28;20498;-83
2022/05/20 09:36:42;;;;;;;0.70;0.68;;;;;;;12.49;34.16;101466.59;5073555;28;20490;-83
2022/05/20 09:39:13;;;;;;;1.08;0.98;;;;;;;12.26;35.04;101481.69;5091659;28;20048;-83
2022/05/20 09:41:54;;;;;;;1.73;0.90;;;;;;;11.98;34.75;101485.75;5090604;28;20032;-83
2022/05/20 09:44:23;;;;;;;0.77;0.60;;;;;;;11.74;35.29;101477.09;5091745;28;20047;-83
2022/05/20 09:46:51;;;;;;;;;;;;;;;11.54;36.36;101469.59;5092221;28;20089;-83
2022/05/20 09:49:36;;;;;;;1.15;0.90;;;;;;;11.31;35.85;101459.84;5090415;28;19920;-83
2022/05/20 09:52:02;;;;;;;0.85;0.75;;;;;;;11.17;37.27;101459.50;5090567;28;20070;-83
2022/05/20 09:54:32;;;;;;;1.35;0.90;;;;;;;11.12;37.06;101464.97;5089957;28;20043;-82
2022/05/20 09:57:09;;;;;;;1.10;1.00;;;;;;;11.03;36.41;101458.28;5091594;28;20057;-83
2022/05/20 09:59:56;;;;;;;0.63;0.63;;;;;;;10.97;36.57;101445.63;5085997;28;20410;-82
2022/05/20 10:02:34;;;;;;;1.83;0.90;;;;;;;10.88;36.63;101459.00;5075449;28;20037;-82
2022/05/20 10:05:08;;;;;;;0.95;0.90;;;;;;;10.77;36.55;101453.72;5056363;28;20107;-82
2022/05/20 10:08:13;;;;;;;0.90;0.70;;;;;;;10.75;37.59;101444.88;5090039;28;20051;-81
2022/05/20 10:10:53;;;;;;;0.75;0.70;;;;;;;10.74;37.18;101443.22;5090281;28;20067;-82
2022/05/20 10:13:29;;;;;;;0.68;0.60;;;;;;;10.75;37.97;101447.63;5090319;28;20046;-82
2022/05/20 10:16:18;;;;;;;2.05;0.70;;;;;;;10.67;37.25;101448.97;5089543;28;20044;-82
2022/05/20 10:18:46;;;;;;;;;;;;;;;10.63;38.75;101468.97;5069044;28;20055;-82
2022/05/20 10:21:39;;;;;;;1.10;0.85;;;;;;;10.57;38.04;101446.94;5069938;28;19924;-82
2022/05/20 10:24:27;;;;;;;0.80;0.80;;;;;;;10.52;38.23;101424.13;5071367;28;20047;-82
2022/05/20 10:27:12;;;;;;;1.70;1.10;;;;;;;10.52;39.07;101430.44;5070162;28;20040;-82
2022/05/20 10:33:09;;;;;;;4.43;1.25;;;;;;;10.55;39.54;101418.94;5071161;28;20564;-82
2022/05/20 10:36:01;;;;;;;0.63;0.55;;;;;;;10.54;40.17;101419.19;5071040;28;20044;-82
2022/05/20 10:38:56;;;;;;;1.20;1.10;;;;;;;10.54;39.60;101422.78;5069989;28;20506;-83
2022/05/20 10:41:32;;;;;;;2.70;1.60;;;;;;;10.53;41.04;101421.13;5079908;28;20063;-82
2022/05/20 10:50:32;;;;;;;2.63;1.83;;;;;;;10.27;42.72;101438.44;5089188;28;20456;-82
2022/05/20 10:53:27;;;;;;;3.42;2.50;;;;;;;10.22;43.58;101421.94;5086092;28;20108;-81
2022/05/20 10:56:17;;;;;;;2.38;1.50;;;;;;;10.18;43.10;101418.03;5069670;28;20506;-82
2022/05/20 10:58:59;;;;;;;4.65;1.70;;;;;;;10.08;42.94;101413.28;5074773;28;20044;-82
2022/05/20 11:01:37;;;;;;;2.65;1.50;;;;;;;10.05;43.05;101394.56;5047859;28;20477;-83
2022/05/20 11:04:13;;;;;;;3.90;1.17;;;;;;;10.08;43.94;101413.28;5073381;28;20075;-83
2022/05/20 11:06:43;;;;;;;2.20;0.82;;;;;;;10.04;43.20;101398.41;5073475;28;20090;-82
2022/05/20 11:09:11;;;;;;;1.88;0.77;;;;;;;10.01;43.10;101400.84;5074249;28;20510;-82
2022/05/20 11:11:59;;;;;;;3.08;1.05;;;;;;;10.03;44.22;101399.50;5074534;28;20036;-82
2022/05/20 11:14:37;;;;;;;0.37;0.37;;;;;;;10.10;43.91;101399.31;5074239;28;20071;-82
2022/05/20 11:17:30;;;;;;;0.63;0.63;;;;;;;10.18;43.51;101429.00;5072838;28;20050;-82
2022/05/20 11:19:59;;;;;;;1.52;1.20;;;;;;;10.11;42.65;101407.28;5082522;28;20651;-83
2022/05/20 11:22:39;;;;;;;1.00;0.63;;;;;;;10.00;42.51;101390.97;5091111;28;20036;-83
2022/05/20 11:25:13;;;;;;;0.77;0.52;;;;;;;9.96;43.70;101394.22;5094386;28;20066;-81
2022/05/20 11:27:52;;;;;;;0.60;0.50;;;;;;;10.03;43.26;101384.97;5094346;28;20127;-83
2022/05/20 11:30:20;;;;;;;1.85;0.70;;;;;;;10.04;42.94;101381.13;5092585;28;20039;-81
2022/05/20 11:32:49;;;;;;;1.75;1.27;;;;;;;10.00;42.88;101380.81;5092864;28;20095;-81
2022/05/20 11:35:14;;;;;;;1.23;1.05;;;;;;;9.97;43.38;101381.34;5086958;28;20036;-82
2022/05/20 11:38:01;;;;;;;2.30;1.13;;;;;;;10.00;43.58;101418.38;5082701;28;20056;-82
2022/05/20 11:40:39;;;;;;;2.72;1.15;;;;;;;9.93;43.42;101367.34;5073272;28;20078;-81
2022/05/20 11:43:42;;;;;;;0.52;0.50;;;;;;;9.85;43.98;101395.19;5090780;28;20087;-82
2022/05/20 11:46:19;;;;;;;0.80;0.70;;;;;;;9.80;43.95;101386.94;5093848;28;20032;-82
2022/05/20 11:49:15;;;;;;;1.02;0.90;;;;;;;9.73;43.77;101364.41;5094179;28;20044;-82
2022/05/20 11:51:49;;;;;;;1.27;0.95;;;;;;;9.74;44.66;101357.81;5093784;28;20455;-82
2022/05/20 11:54:31;;;;;;;1.17;0.95;;;;;;;9.77;44.30;101378.41;5093475;28;20059;-82
2022/05/20 11:57:04;;;;;;;1.35;1.02;;;;;;;9.80;44.00;101361.44;5093734;28;20108;-83
2022/05/20 11:59:35;;;;;;;2.42;1.20;;;;;;;9.83;43.94;101364.47;5090634;28;20044;-82
2022/05/20 12:02:06;;;;;;;2.33;1.30;;;;;;;9.77;44.57;101365.53;5065983;28;20498;-82
2022/05/20 12:04:33;;;;;;;1.13;0.90;;;;;;;9.73;44.06;101364.41;5091712;28;20518;-82
2022/05/20 12:07:03;;;;;;;1.88;1.20;;;;;;;9.68;43.53;101364.31;5072667;28;20131;-83
2022/05/20 12:09:39;;;;;;;3.10;1.33;;;;;;;9.63;43.96;101358.78;5070773;28;20048;-82
2022/05/20 12:12:05;;;;;;;1.58;0.38;;;;;;;9.53;44.37;101367.72;5073035;28;20033;-83
2022/05/20 12:14:53;;;;;;;1.52;0.93;;;;;;;9.53;43.25;101359.50;5073487;28;20097;-83
2022/05/20 12:17:44;;;;;;;2.58;1.20;;;;;;;9.46;43.83;101360.78;5071734;28;20048;-83
2022/05/20 12:25:48;;;;;;;1.15;0.90;;;;;;;9.35;43.83;101363.38;5085360;28;20036;-82
2022/05/20 12:28:23;;;;;;;1.42;1.00;;;;;;;9.38;43.49;101366.72;5077697;28;20067;-82